| Date Time MST |
Temp °F |
RH % |
DewPt °F |
Wind mph |
Dir ° |
Gust mph |
Dir ° |
Press in Hg |
Solar W/m^2 |
Prec in |
|---|---|---|---|---|---|---|---|---|---|---|
| 2026-05-02 17:55 | 69.6 | 9.9 | 10.5 | 7.1 | 166 | 10.9 | 166 | 24.849 | 143.0 | 0.00 |
| 2026-05-02 17:50 | 69.7 | 9.6 | 9.7 | 7.7 | 156 | 10.0 | 163 | 24.852 | 160.9 | 0.00 |
| 2026-05-02 17:45 | 69.9 | 9.8 | 10.3 | 7.4 | 192 | 10.1 | 144 | 24.853 | 174.5 | 0.00 |
| 2026-05-02 17:40 | 70.2 | 9.2 | 9.2 | 6.8 | 146 | 9.5 | 152 | 24.853 | 188.7 | 0.00 |
| 2026-05-02 17:35 | 70.5 | 9.0 | 9.1 | 5.0 | 156 | 7.5 | 146 | 24.853 | 207.7 | 0.00 |
| 2026-05-02 17:30 | 70.6 | 9.1 | 9.2 | 5.2 | 129 | 7.6 | 144 | 24.854 | 216.4 | 0.00 |
| 2026-05-02 17:25 | 70.5 | 9.0 | 9.0 | 5.3 | 100 | 8.9 | 125 | 24.856 | 231.9 | 0.00 |
| 2026-05-02 17:20 | 70.7 | 9.1 | 9.4 | 7.2 | 140 | 11.0 | 144 | 24.858 | 244.1 | 0.00 |
| 2026-05-02 17:15 | 71.1 | 9.0 | 9.5 | 6.0 | 157 | 8.8 | 156 | 24.859 | 261.6 | 0.00 |
| 2026-05-02 17:10 | 71.3 | 9.1 | 9.9 | 5.2 | 147 | 6.6 | 148 | 24.860 | 276.1 | 0.00 |
| 2026-05-02 17:05 | 71.1 | 10.1 | 12.0 | 5.3 | 151 | 7.2 | 196 | 24.860 | 287.8 | 0.00 |
| 2026-05-02 17:00 | 71.3 | 9.6 | 10.9 | 6.5 | 168 | 8.7 | 170 | 24.860 | 305.4 | 0.00 |
| 2026-05-02 16:55 | 71.3 | 9.1 | 9.9 | 4.2 | 181 | 8.4 | 132 | 24.861 | 319.9 | 0.00 |
| 2026-05-02 16:50 | 71.1 | 9.2 | 9.9 | 5.9 | 158 | 8.3 | 113 | 24.861 | 335.8 | 0.00 |
| 2026-05-02 16:45 | 71.3 | 8.8 | 9.1 | 7.4 | 116 | 12.9 | 144 | 24.860 | 351.4 | 0.00 |
| 2026-05-02 16:40 | 71.2 | 9.1 | 9.7 | 3.9 | 112 | 7.5 | 127 | 24.862 | 366.0 | 0.00 |
| 2026-05-02 16:35 | 71.1 | 8.8 | 8.8 | 4.8 | 160 | 7.1 | 166 | 24.865 | 380.9 | 0.00 |
| 2026-05-02 16:30 | 71.0 | 9.4 | 10.3 | 6.5 | 126 | 10.0 | 148 | 24.869 | 395.5 | 0.00 |
| 2026-05-02 16:25 | 71.6 | 9.0 | 9.8 | 8.0 | 149 | 13.0 | 145 | 24.870 | 410.7 | 0.00 |
| 2026-05-02 16:20 | 71.2 | 9.1 | 9.8 | 7.8 | 97 | 10.9 | 92 | 24.870 | 426.0 | 0.00 |
| 2026-05-02 16:15 | 71.8 | 8.7 | 9.2 | 8.4 | 110 | 12.7 | 109 | 24.878 | 442.0 | 0.00 |
| 2026-05-02 16:10 | 72.9 | 8.6 | 9.8 | 4.5 | 146 | 9.5 | 126 | 24.875 | 457.5 | 0.00 |
| 2026-05-02 16:05 | 71.8 | 8.7 | 9.3 | 3.4 | 288 | 6.4 | 202 | 24.875 | 471.2 | 0.00 |
| 2026-05-02 16:00 | 71.6 | 9.1 | 10.0 | 5.2 | 252 | 7.4 | 70 | 24.874 | 485.5 | 0.00 |
| 2026-05-02 15:55 | 71.4 | 9.1 | 9.9 | 5.1 | 87 | 8.9 | 99 | 24.869 | 500.7 | 0.00 |
| 2026-05-02 15:50 | 71.5 | 8.8 | 9.1 | 6.6 | 99 | 11.2 | 129 | 24.880 | 514.7 | 0.00 |
| 2026-05-02 15:45 | 71.5 | 9.8 | 11.5 | 4.3 | 164 | 9.7 | 159 | 24.873 | 528.4 | 0.00 |
| 2026-05-02 15:40 | 70.8 | 9.3 | 10.0 | 3.1 | 80 | 7.6 | 67 | 24.843 | 542.3 | 0.00 |
| 2026-05-02 15:35 | 71.7 | 9.0 | 9.9 | 7.1 | 115 | 10.7 | 96 | 24.857 | 556.5 | 0.00 |
| 2026-05-02 15:30 | 72.9 | 9.6 | 12.2 | 6.6 | 111 | 15.6 | 128 | 24.874 | 570.1 | 0.00 |
| Date Time MST |
Temp °C |
RH % |
DewPt °C |
Wind m/s |
Dir ° |
Gust m/s |
Dir ° |
Press hPa |
Solar W/m^2 |
Prec mm |
|---|---|---|---|---|---|---|---|---|---|---|
| 2026-05-02 17:55 | 20.9 | 9.9 | -12.0 | 3.2 | 166 | 4.9 | 166 | 841.47 | 143.0 | 0.00 |
| 2026-05-02 17:50 | 21.0 | 9.6 | -12.4 | 3.5 | 156 | 4.4 | 163 | 841.58 | 160.9 | 0.00 |
| 2026-05-02 17:45 | 21.0 | 9.8 | -12.1 | 3.3 | 192 | 4.5 | 144 | 841.61 | 174.5 | 0.00 |
| 2026-05-02 17:40 | 21.2 | 9.2 | -12.7 | 3.1 | 146 | 4.2 | 152 | 841.62 | 188.7 | 0.00 |
| 2026-05-02 17:35 | 21.4 | 9.0 | -12.7 | 2.2 | 156 | 3.4 | 146 | 841.63 | 207.7 | 0.00 |
| 2026-05-02 17:30 | 21.4 | 9.1 | -12.7 | 2.3 | 129 | 3.4 | 144 | 841.64 | 216.4 | 0.00 |
| 2026-05-02 17:25 | 21.4 | 9.0 | -12.8 | 2.4 | 100 | 4.0 | 125 | 841.73 | 231.9 | 0.00 |
| 2026-05-02 17:20 | 21.5 | 9.1 | -12.5 | 3.2 | 140 | 4.9 | 144 | 841.77 | 244.1 | 0.00 |
| 2026-05-02 17:15 | 21.7 | 9.0 | -12.5 | 2.7 | 157 | 3.9 | 156 | 841.82 | 261.6 | 0.00 |
| 2026-05-02 17:10 | 21.8 | 9.1 | -12.3 | 2.3 | 147 | 3.0 | 148 | 841.86 | 276.1 | 0.00 |
| 2026-05-02 17:05 | 21.7 | 10.1 | -11.1 | 2.4 | 151 | 3.2 | 196 | 841.86 | 287.8 | 0.00 |
| 2026-05-02 17:00 | 21.9 | 9.6 | -11.7 | 2.9 | 168 | 3.9 | 170 | 841.86 | 305.4 | 0.00 |
| 2026-05-02 16:55 | 21.8 | 9.1 | -12.3 | 1.9 | 181 | 3.7 | 132 | 841.90 | 319.9 | 0.00 |
| 2026-05-02 16:50 | 21.7 | 9.2 | -12.3 | 2.6 | 158 | 3.7 | 113 | 841.89 | 335.8 | 0.00 |
| 2026-05-02 16:45 | 21.8 | 8.8 | -12.7 | 3.3 | 116 | 5.8 | 144 | 841.86 | 351.4 | 0.00 |
| 2026-05-02 16:40 | 21.8 | 9.1 | -12.4 | 1.7 | 112 | 3.4 | 127 | 841.91 | 366.0 | 0.00 |
| 2026-05-02 16:35 | 21.7 | 8.8 | -12.9 | 2.1 | 160 | 3.2 | 166 | 842.04 | 380.9 | 0.00 |
| 2026-05-02 16:30 | 21.7 | 9.4 | -12.1 | 2.9 | 126 | 4.5 | 148 | 842.17 | 395.5 | 0.00 |
| 2026-05-02 16:25 | 22.0 | 9.0 | -12.3 | 3.6 | 149 | 5.8 | 145 | 842.18 | 410.7 | 0.00 |
| 2026-05-02 16:20 | 21.8 | 9.1 | -12.3 | 3.5 | 97 | 4.9 | 92 | 842.20 | 426.0 | 0.00 |
| 2026-05-02 16:15 | 22.1 | 8.7 | -12.7 | 3.8 | 110 | 5.7 | 109 | 842.45 | 442.0 | 0.00 |
| 2026-05-02 16:10 | 22.7 | 8.6 | -12.3 | 2.0 | 146 | 4.2 | 126 | 842.36 | 457.5 | 0.00 |
| 2026-05-02 16:05 | 22.1 | 8.7 | -12.6 | 1.5 | 288 | 2.8 | 202 | 842.36 | 471.2 | 0.00 |
| 2026-05-02 16:00 | 22.0 | 9.1 | -12.2 | 2.3 | 252 | 3.3 | 70 | 842.33 | 485.5 | 0.00 |
| 2026-05-02 15:55 | 21.9 | 9.1 | -12.3 | 2.3 | 87 | 4.0 | 99 | 842.14 | 500.7 | 0.00 |
| 2026-05-02 15:50 | 22.0 | 8.8 | -12.7 | 2.9 | 99 | 5.0 | 129 | 842.55 | 514.7 | 0.00 |
| 2026-05-02 15:45 | 22.0 | 9.8 | -11.4 | 1.9 | 164 | 4.4 | 159 | 842.29 | 528.4 | 0.00 |
| 2026-05-02 15:40 | 21.6 | 9.3 | -12.2 | 1.4 | 80 | 3.4 | 67 | 841.26 | 542.3 | 0.00 |
| 2026-05-02 15:35 | 22.0 | 9.0 | -12.3 | 3.2 | 115 | 4.8 | 96 | 841.76 | 556.5 | 0.00 |
| 2026-05-02 15:30 | 22.7 | 9.6 | -11.0 | 3.0 | 111 | 7.0 | 128 | 842.34 | 570.1 | 0.00 |